Strona główna
METAR-TAF:

METAR-TAF

Lotnisko :

Port lotniczy Kasane

Kasane, Botswana

Szerokość geograficzna: 17-49S, Długość geograficzna: 025-09E, wysokość: 968 m

Aktualna obserwacja pogody

Raport powstał 1 godzina i 7 minut temu, godzina 17:00 UTC
Wiatr 7 kt od wschód
Temperatura 22°C
Wilgotność 33%
Ciśnienie 1025 hPa
Widzialność 10 km lub więcej
Brak chmur poniżej 1500 m i brak chmur cumulonimbus

METAR: FBKE 211700Z 10007KT CAVOK 22/05 Q1025

czas: 20:07 (18:07 UTC)

Prognoza

Raport powstał 6 godziny i 7 minut temu, godzina 12:00 UTC
Prognoza ważna od 21 godzina 15 UTC do 21 godzina 24 UTC
Wiatr 10 kt od wschód
Widzialność 10 km lub więcej
Brak chmur poniżej 1500 m i brak chmur cumulonimbus

TAF: FBKE 211200Z 2115/2124 10010KT CAVOK

Obserwacja i prognoza pogody dla ponad 4000 lotnisk (raport METAR i TAF).

Dostępne stacje oznaczono żółtymi i czerwonymi punktami na mapie.

Najedź kursorem aby zobaczyć nazwę stacji.

Kliknij aby zobaczyć obserwacje i prognozy pogody.

Aby zmienić mapę: kliknij na zielony przycisk z czarnym krzyżykiem, aby powiększyć; na zielony przycisk z myślnikiem, aby pomniejszyć; na zielone strzałki, aby przejść do map sąsiednich.


METAR-TAF: